RYR88DM EGSS-LFBL
Flight info
| Callsign | RYR88DM |
|---|---|
| Flight time | 1h 9m |
| Altitude | 26000 |
| Route | NUGBO M183 SILVA Q41 COWLY T71 VAPID N859 DRAKE L151 SITET UN859 VANAD A34 AMB R10 BALAN |
| Aircraft | B738/M-SDE2E3FGHIRWXY/LB1 |
Departure
| Time | 2026-04-25 15:21 |
|---|---|
| Airport | London Stansted Airport (EGSS) |
Arrival
| Time | 2026-04-25 16:30 |
|---|---|
| Airport | Limoges Airport (LFBL) |
| Time | Latitude | Longitude | Altitude | Speed | Heading |
|---|---|---|---|---|---|
| 2026-04-25 14:49 | 51.89213 | 0.26003 | 357 ft | 0 kts | 43° |
| 2026-04-25 15:14 | 51.89203 | 0.25988 | 358 ft | 4 kts | 51° |
| 2026-04-25 15:14 | 51.89189 | 0.25955 | 350 ft | 4 kts | 35° |
| 2026-04-25 15:14 | 51.89173 | 0.25954 | 357 ft | 3 kts | 315° |
| 2026-04-25 15:14 | 51.89158 | 0.25979 | 348 ft | 3 kts | 313° |
| 2026-04-25 15:15 | 51.89156 | 0.25982 | 354 ft | 0 kts | 313° |
| 2026-04-25 15:17 | 51.89158 | 0.25980 | 353 ft | 1 kts | 313° |
| 2026-04-25 15:17 | 51.89187 | 0.25928 | 352 ft | 12 kts | 313° |
| 2026-04-25 15:17 | 51.89251 | 0.25817 | 356 ft | 14 kts | 313° |
| 2026-04-25 15:18 | 51.89315 | 0.25706 | 348 ft | 13 kts | 313° |
| 2026-04-25 15:18 | 51.89418 | 0.25460 | 351 ft | 15 kts | 284° |
| 2026-04-25 15:18 | 51.89441 | 0.25304 | 355 ft | 13 kts | 313° |
| 2026-04-25 15:19 | 51.89484 | 0.25223 | 348 ft | 5 kts | 304° |
| 2026-04-25 15:19 | 51.89488 | 0.25214 | 348 ft | 2 kts | 297° |
| 2026-04-25 15:19 | 51.89489 | 0.25211 | 353 ft | 1 kts | 296° |
| 2026-04-25 15:19 | 51.89494 | 0.25147 | 351 ft | 12 kts | 269° |
| 2026-04-25 15:20 | 51.89491 | 0.24985 | 358 ft | 14 kts | 258° |
| 2026-04-25 15:20 | 51.89384 | 0.24806 | 355 ft | 46 kts | 223° |
| 2026-04-25 15:20 | 51.88971 | 0.24186 | 352 ft | 114 kts | 222° |
| 2026-04-25 15:20 | 51.87991 | 0.22719 | 555 ft | 161 kts | 224° |
| 2026-04-25 15:21 | 51.87433 | 0.21873 | 961 ft | 165 kts | 224° |
| 2026-04-25 15:21 | 51.86610 | 0.20621 | 1707 ft | 164 kts | 224° |
| 2026-04-25 15:21 | 51.85740 | 0.19308 | 2152 ft | 184 kts | 223° |
| 2026-04-25 15:21 | 51.84731 | 0.17798 | 2524 ft | 206 kts | 223° |
| 2026-04-25 15:22 | 51.83666 | 0.16173 | 3063 ft | 213 kts | 229° |
| 2026-04-25 15:22 | 51.83053 | 0.13981 | 3504 ft | 225 kts | 269° |
| 2026-04-25 15:22 | 51.83492 | 0.11577 | 4146 ft | 228 kts | 307° |
| 2026-04-25 15:22 | 51.84765 | 0.10126 | 4924 ft | 229 kts | 344° |
| 2026-04-25 15:23 | 51.86331 | 0.09640 | 5673 ft | 233 kts | 350° |
| 2026-04-25 15:23 | 51.88000 | 0.09219 | 5955 ft | 258 kts | 350° |
| 2026-04-25 15:23 | 51.89812 | 0.08744 | 6569 ft | 268 kts | 350° |
| 2026-04-25 15:23 | 51.91669 | 0.08250 | 7321 ft | 272 kts | 349° |
| 2026-04-25 15:24 | 51.93541 | 0.07707 | 8127 ft | 275 kts | 345° |
| 2026-04-25 15:24 | 51.95195 | 0.06192 | 8894 ft | 279 kts | 312° |
| 2026-04-25 15:24 | 51.96088 | 0.03429 | 9737 ft | 282 kts | 283° |
| 2026-04-25 15:24 | 51.96214 | 0.01283 | 10291 ft | 285 kts | 268° |
| 2026-04-25 15:25 | 51.95526 | -0.02985 | 10752 ft | 314 kts | 246° |
| 2026-04-25 15:25 | 51.94516 | -0.06277 | 11024 ft | 337 kts | 243° |
| 2026-04-25 15:25 | 51.93391 | -0.09665 | 11649 ft | 345 kts | 242° |
| 2026-04-25 15:25 | 51.92241 | -0.13088 | 12478 ft | 347 kts | 242° |
| 2026-04-25 15:26 | 51.91090 | -0.16539 | 13354 ft | 349 kts | 243° |
| 2026-04-25 15:26 | 51.89941 | -0.20024 | 14192 ft | 353 kts | 243° |
| 2026-04-25 15:26 | 51.88786 | -0.23553 | 14953 ft | 356 kts | 243° |
| 2026-04-25 15:26 | 51.87628 | -0.27114 | 15752 ft | 360 kts | 244° |
| 2026-04-25 15:27 | 51.86458 | -0.30720 | 16536 ft | 364 kts | 244° |
| 2026-04-25 15:27 | 51.85277 | -0.34365 | 17319 ft | 367 kts | 244° |
| 2026-04-25 15:27 | 51.82880 | -0.41759 | 18793 ft | 375 kts | 244° |
| 2026-04-25 15:28 | 51.81660 | -0.45516 | 19471 ft | 378 kts | 244° |
| 2026-04-25 15:28 | 51.80432 | -0.49291 | 20155 ft | 381 kts | 243° |
| 2026-04-25 15:28 | 51.79197 | -0.53083 | 20866 ft | 383 kts | 243° |
| 2026-04-25 15:28 | 51.77951 | -0.56900 | 21526 ft | 386 kts | 243° |
| 2026-04-25 15:29 | 51.76694 | -0.60748 | 22164 ft | 389 kts | 243° |
| 2026-04-25 15:29 | 51.75412 | -0.64622 | 22793 ft | 393 kts | 240° |
| 2026-04-25 15:29 | 51.73624 | -0.67949 | 23456 ft | 398 kts | 218° |
| 2026-04-25 15:29 | 51.71151 | -0.69982 | 24101 ft | 403 kts | 200° |
| 2026-04-25 15:30 | 51.68385 | -0.70825 | 24649 ft | 409 kts | 186° |
| 2026-04-25 15:30 | 51.65538 | -0.71022 | 25265 ft | 409 kts | 184° |
| 2026-04-25 15:30 | 51.62695 | -0.71148 | 25910 ft | 408 kts | 184° |
| 2026-04-25 15:30 | 51.59861 | -0.71261 | 26579 ft | 406 kts | 184° |
| 2026-04-25 15:31 | 51.57015 | -0.71387 | 26890 ft | 412 kts | 184° |
| 2026-04-25 15:31 | 51.54182 | -0.71530 | 27139 ft | 412 kts | 185° |
| 2026-04-25 15:31 | 51.51318 | -0.71688 | 27169 ft | 411 kts | 185° |
| 2026-04-25 15:31 | 51.48436 | -0.71855 | 27178 ft | 407 kts | 185° |
| 2026-04-25 15:32 | 51.45615 | -0.72025 | 27186 ft | 406 kts | 185° |
| 2026-04-25 15:32 | 51.42824 | -0.72197 | 27197 ft | 408 kts | 185° |
| 2026-04-25 15:32 | 51.39988 | -0.72372 | 27193 ft | 409 kts | 185° |
| 2026-04-25 15:33 | 51.34286 | -0.72724 | 27187 ft | 410 kts | 185° |
| 2026-04-25 15:33 | 51.31438 | -0.72898 | 27174 ft | 410 kts | 185° |
| 2026-04-25 15:33 | 51.28585 | -0.73072 | 27185 ft | 410 kts | 185° |
| 2026-04-25 15:33 | 51.25735 | -0.73246 | 27183 ft | 410 kts | 185° |
| 2026-04-25 15:34 | 51.22889 | -0.73419 | 27185 ft | 409 kts | 185° |
| 2026-04-25 15:34 | 51.20039 | -0.73592 | 27186 ft | 409 kts | 185° |
| 2026-04-25 15:34 | 51.17201 | -0.73764 | 27183 ft | 409 kts | 185° |
| 2026-04-25 15:34 | 51.15316 | -0.73878 | 27189 ft | 408 kts | 185° |
| 2026-04-25 15:35 | 51.08683 | -0.74279 | 27183 ft | 408 kts | 185° |
| 2026-04-25 15:35 | 51.05846 | -0.74451 | 27188 ft | 408 kts | 185° |
| 2026-04-25 15:35 | 51.03013 | -0.74622 | 27189 ft | 408 kts | 185° |
| 2026-04-25 15:36 | 50.97344 | -0.74964 | 27191 ft | 408 kts | 185° |
| 2026-04-25 15:36 | 50.94510 | -0.75135 | 27198 ft | 408 kts | 185° |
| 2026-04-25 15:36 | 50.91677 | -0.75305 | 27201 ft | 408 kts | 185° |
| 2026-04-25 15:37 | 50.88838 | -0.75445 | 27194 ft | 409 kts | 181° |
| 2026-04-25 15:37 | 50.86004 | -0.74867 | 27192 ft | 413 kts | 168° |
| 2026-04-25 15:37 | 50.83270 | -0.73441 | 27202 ft | 416 kts | 159° |
| 2026-04-25 15:37 | 50.80651 | -0.71473 | 27210 ft | 417 kts | 155° |
| 2026-04-25 15:38 | 50.78060 | -0.69389 | 27201 ft | 418 kts | 155° |
| 2026-04-25 15:38 | 50.75478 | -0.67276 | 27196 ft | 418 kts | 155° |
| 2026-04-25 15:38 | 50.72892 | -0.65162 | 27202 ft | 419 kts | 155° |
| 2026-04-25 15:38 | 50.70302 | -0.63058 | 27203 ft | 419 kts | 155° |
| 2026-04-25 15:39 | 50.67707 | -0.60968 | 27206 ft | 419 kts | 155° |
| 2026-04-25 15:39 | 50.65112 | -0.58891 | 27206 ft | 419 kts | 155° |
| 2026-04-25 15:39 | 50.62509 | -0.56816 | 27199 ft | 419 kts | 155° |
| 2026-04-25 15:39 | 50.59909 | -0.54752 | 27199 ft | 419 kts | 155° |
| 2026-04-25 15:40 | 50.57305 | -0.52688 | 27199 ft | 419 kts | 155° |
| 2026-04-25 15:40 | 50.56459 | -0.52017 | 27207 ft | 419 kts | 155° |
| 2026-04-25 15:40 | 50.52096 | -0.48568 | 27200 ft | 419 kts | 155° |
| 2026-04-25 15:40 | 50.49491 | -0.46511 | 27203 ft | 419 kts | 155° |
| 2026-04-25 15:41 | 50.46888 | -0.44458 | 27204 ft | 419 kts | 155° |
| 2026-04-25 15:41 | 50.44281 | -0.42406 | 27202 ft | 419 kts | 155° |
| 2026-04-25 15:41 | 50.41674 | -0.40354 | 27192 ft | 419 kts | 155° |
| 2026-04-25 15:41 | 50.39072 | -0.38310 | 27195 ft | 419 kts | 155° |
| 2026-04-25 15:42 | 50.36467 | -0.36265 | 27202 ft | 418 kts | 155° |
| 2026-04-25 15:42 | 50.33867 | -0.34227 | 27195 ft | 418 kts | 155° |
| 2026-04-25 15:42 | 50.31266 | -0.32191 | 27202 ft | 418 kts | 155° |
| 2026-04-25 15:42 | 50.28700 | -0.30184 | 27202 ft | 418 kts | 155° |
| 2026-04-25 15:43 | 50.26097 | -0.28152 | 27202 ft | 418 kts | 155° |
| 2026-04-25 15:43 | 50.23496 | -0.26123 | 27200 ft | 418 kts | 156° |
| 2026-04-25 15:43 | 50.20896 | -0.24097 | 27192 ft | 418 kts | 156° |
| 2026-04-25 15:43 | 50.18294 | -0.22073 | 27186 ft | 418 kts | 156° |
| 2026-04-25 15:44 | 50.15695 | -0.20053 | 27202 ft | 417 kts | 156° |
| 2026-04-25 15:44 | 50.13094 | -0.18035 | 27182 ft | 417 kts | 156° |
| 2026-04-25 15:44 | 50.10498 | -0.16022 | 27187 ft | 417 kts | 156° |
| 2026-04-25 15:44 | 50.07901 | -0.14011 | 27197 ft | 417 kts | 156° |
| 2026-04-25 15:45 | 50.05307 | -0.12005 | 27186 ft | 417 kts | 156° |
| 2026-04-25 15:45 | 50.02711 | -0.10000 | 27201 ft | 416 kts | 156° |
| 2026-04-25 15:45 | 50.00116 | -0.07997 | 27191 ft | 416 kts | 156° |
| 2026-04-25 15:45 | 49.99237 | -0.07320 | 27190 ft | 416 kts | 156° |
| 2026-04-25 15:46 | 49.94925 | -0.04000 | 27192 ft | 416 kts | 156° |
| 2026-04-25 15:46 | 49.92332 | -0.02006 | 27194 ft | 416 kts | 156° |
| 2026-04-25 15:46 | 49.89740 | -0.00016 | 27185 ft | 415 kts | 156° |
| 2026-04-25 15:46 | 49.87152 | 0.01968 | 27185 ft | 415 kts | 156° |
| 2026-04-25 15:47 | 49.84566 | 0.03949 | 27183 ft | 414 kts | 156° |
| 2026-04-25 15:47 | 49.81981 | 0.05927 | 27184 ft | 414 kts | 156° |
| 2026-04-25 15:47 | 49.79401 | 0.07899 | 27185 ft | 414 kts | 156° |
| 2026-04-25 15:47 | 49.76822 | 0.09868 | 27185 ft | 413 kts | 156° |
| 2026-04-25 15:48 | 49.74243 | 0.11835 | 27176 ft | 413 kts | 156° |
| 2026-04-25 15:48 | 49.71701 | 0.13771 | 27184 ft | 412 kts | 157° |
| 2026-04-25 15:48 | 49.69092 | 0.15741 | 27184 ft | 411 kts | 158° |
| 2026-04-25 15:48 | 49.66419 | 0.17257 | 27182 ft | 407 kts | 168° |
| 2026-04-25 15:49 | 49.63684 | 0.18360 | 27186 ft | 407 kts | 169° |
| 2026-04-25 15:49 | 49.60975 | 0.19404 | 27182 ft | 407 kts | 169° |
| 2026-04-25 15:49 | 49.58232 | 0.20460 | 27184 ft | 407 kts | 169° |
| 2026-04-25 15:49 | 49.55488 | 0.21530 | 27184 ft | 407 kts | 169° |
| 2026-04-25 15:50 | 49.52748 | 0.22613 | 27189 ft | 407 kts | 169° |
| 2026-04-25 15:50 | 49.50014 | 0.23702 | 27183 ft | 406 kts | 168° |
| 2026-04-25 15:50 | 49.47282 | 0.24797 | 27183 ft | 405 kts | 168° |
| 2026-04-25 15:50 | 49.44560 | 0.25887 | 27179 ft | 404 kts | 168° |
| 2026-04-25 15:51 | 49.41843 | 0.26975 | 27180 ft | 403 kts | 168° |
| 2026-04-25 15:51 | 49.40930 | 0.27341 | 27182 ft | 402 kts | 168° |
| 2026-04-25 15:51 | 49.36433 | 0.29137 | 27182 ft | 401 kts | 168° |
| 2026-04-25 15:51 | 49.33730 | 0.30215 | 27184 ft | 401 kts | 168° |
| 2026-04-25 15:52 | 49.31031 | 0.31289 | 27185 ft | 401 kts | 168° |
| 2026-04-25 15:52 | 49.28340 | 0.32392 | 27179 ft | 401 kts | 168° |
| 2026-04-25 15:52 | 49.25648 | 0.33526 | 27179 ft | 401 kts | 167° |
| 2026-04-25 15:52 | 49.22957 | 0.34670 | 27177 ft | 402 kts | 167° |
| 2026-04-25 15:53 | 49.20264 | 0.35813 | 27158 ft | 402 kts | 167° |
| 2026-04-25 15:53 | 49.17571 | 0.36954 | 27155 ft | 402 kts | 167° |
| 2026-04-25 15:53 | 49.14869 | 0.38094 | 27152 ft | 403 kts | 167° |
| 2026-04-25 15:53 | 49.12167 | 0.39230 | 27150 ft | 403 kts | 167° |
| 2026-04-25 15:54 | 49.09463 | 0.40365 | 27154 ft | 403 kts | 167° |
| 2026-04-25 15:54 | 49.06756 | 0.41499 | 27146 ft | 404 kts | 168° |
| 2026-04-25 15:54 | 49.04049 | 0.42631 | 27145 ft | 403 kts | 168° |
| 2026-04-25 15:54 | 49.01342 | 0.43763 | 27141 ft | 403 kts | 168° |
| 2026-04-25 15:55 | 48.98642 | 0.44890 | 27145 ft | 402 kts | 168° |
| 2026-04-25 15:55 | 48.95949 | 0.46013 | 27147 ft | 401 kts | 168° |
| 2026-04-25 15:55 | 48.93265 | 0.47131 | 27142 ft | 399 kts | 168° |
| 2026-04-25 15:55 | 48.90588 | 0.48245 | 27138 ft | 398 kts | 168° |
| 2026-04-25 15:56 | 48.87918 | 0.49355 | 27142 ft | 397 kts | 168° |
| 2026-04-25 15:56 | 48.85254 | 0.50461 | 27142 ft | 397 kts | 168° |
| 2026-04-25 15:56 | 48.82595 | 0.51564 | 27144 ft | 396 kts | 168° |
| 2026-04-25 15:56 | 48.79934 | 0.52665 | 27137 ft | 396 kts | 168° |
| 2026-04-25 15:57 | 48.77272 | 0.53752 | 27137 ft | 396 kts | 168° |
| 2026-04-25 15:57 | 48.74605 | 0.54803 | 27134 ft | 396 kts | 169° |
| 2026-04-25 15:57 | 48.71970 | 0.55828 | 27132 ft | 397 kts | 169° |
| 2026-04-25 15:57 | 48.69293 | 0.56868 | 27133 ft | 397 kts | 169° |
| 2026-04-25 15:58 | 48.66613 | 0.57912 | 27133 ft | 398 kts | 169° |
| 2026-04-25 15:58 | 48.63933 | 0.58957 | 27117 ft | 398 kts | 168° |
| 2026-04-25 15:58 | 48.61250 | 0.60006 | 27123 ft | 398 kts | 168° |
| 2026-04-25 15:58 | 48.58565 | 0.61054 | 27124 ft | 399 kts | 168° |
| 2026-04-25 15:59 | 48.55880 | 0.62102 | 27123 ft | 399 kts | 168° |
| 2026-04-25 15:59 | 48.53193 | 0.63149 | 27122 ft | 399 kts | 168° |
| 2026-04-25 15:59 | 48.50508 | 0.64206 | 27124 ft | 399 kts | 168° |
| 2026-04-25 15:59 | 48.47826 | 0.65293 | 27117 ft | 399 kts | 168° |
| 2026-04-25 16:00 | 48.45148 | 0.66389 | 27127 ft | 399 kts | 168° |
| 2026-04-25 16:00 | 48.44242 | 0.66760 | 27121 ft | 399 kts | 168° |
| 2026-04-25 16:00 | 48.39796 | 0.68576 | 27119 ft | 398 kts | 167° |
| 2026-04-25 16:00 | 48.37118 | 0.69665 | 27118 ft | 398 kts | 167° |
| 2026-04-25 16:01 | 48.34444 | 0.70749 | 27117 ft | 398 kts | 167° |
| 2026-04-25 16:01 | 48.31767 | 0.71833 | 27112 ft | 398 kts | 167° |
| 2026-04-25 16:01 | 48.29090 | 0.72915 | 27112 ft | 398 kts | 167° |
| 2026-04-25 16:01 | 48.26413 | 0.73996 | 27113 ft | 398 kts | 167° |
| 2026-04-25 16:02 | 48.23739 | 0.75070 | 27122 ft | 398 kts | 168° |
| 2026-04-25 16:02 | 48.21061 | 0.76128 | 27110 ft | 398 kts | 168° |
| 2026-04-25 16:02 | 48.18382 | 0.77180 | 27113 ft | 398 kts | 168° |
| 2026-04-25 16:02 | 48.15703 | 0.78230 | 27107 ft | 398 kts | 168° |
| 2026-04-25 16:03 | 48.13024 | 0.79279 | 27104 ft | 398 kts | 168° |
| 2026-04-25 16:03 | 48.10345 | 0.80329 | 27112 ft | 398 kts | 168° |
| 2026-04-25 16:03 | 48.07669 | 0.81378 | 27113 ft | 398 kts | 168° |
| 2026-04-25 16:03 | 48.04988 | 0.82428 | 27105 ft | 398 kts | 168° |
| 2026-04-25 16:04 | 48.02309 | 0.83476 | 27109 ft | 398 kts | 168° |
| 2026-04-25 16:04 | 47.99632 | 0.84523 | 27105 ft | 398 kts | 168° |
| 2026-04-25 16:04 | 47.96951 | 0.85570 | 27097 ft | 398 kts | 168° |
| 2026-04-25 16:04 | 47.94270 | 0.86616 | 27104 ft | 398 kts | 168° |
| 2026-04-25 16:05 | 47.91587 | 0.87662 | 27113 ft | 399 kts | 168° |
| 2026-04-25 16:05 | 47.88892 | 0.88666 | 27110 ft | 399 kts | 171° |
| 2026-04-25 16:05 | 47.83470 | 0.90136 | 27114 ft | 399 kts | 173° |
| 2026-04-25 16:06 | 47.80728 | 0.90791 | 27108 ft | 400 kts | 173° |
| 2026-04-25 16:06 | 47.77981 | 0.91449 | 27102 ft | 400 kts | 173° |
| 2026-04-25 16:06 | 47.75232 | 0.92119 | 27108 ft | 400 kts | 173° |
| 2026-04-25 16:06 | 47.72485 | 0.92801 | 27113 ft | 401 kts | 173° |
| 2026-04-25 16:07 | 47.69737 | 0.93493 | 27117 ft | 401 kts | 173° |
| 2026-04-25 16:07 | 47.68809 | 0.93728 | 27117 ft | 401 kts | 173° |
| 2026-04-25 16:07 | 47.64241 | 0.94891 | 27116 ft | 401 kts | 173° |
| 2026-04-25 16:07 | 47.61495 | 0.95593 | 27113 ft | 400 kts | 173° |
| 2026-04-25 16:08 | 47.58750 | 0.96295 | 27107 ft | 400 kts | 173° |
| 2026-04-25 16:08 | 47.56007 | 0.96995 | 27114 ft | 400 kts | 173° |
| 2026-04-25 16:08 | 47.54191 | 0.97459 | 27116 ft | 399 kts | 173° |
| 2026-04-25 16:08 | 47.51458 | 0.98156 | 26998 ft | 397 kts | 173° |
| 2026-04-25 16:09 | 47.48759 | 0.98844 | 26724 ft | 391 kts | 173° |
| 2026-04-25 16:09 | 47.46090 | 0.99524 | 26471 ft | 387 kts | 173° |
| 2026-04-25 16:09 | 47.43449 | 1.00195 | 26219 ft | 384 kts | 173° |
| 2026-04-25 16:09 | 47.40815 | 1.00863 | 25963 ft | 384 kts | 173° |
| 2026-04-25 16:10 | 47.38187 | 1.01529 | 25648 ft | 381 kts | 173° |
| 2026-04-25 16:10 | 47.35588 | 1.02187 | 25255 ft | 378 kts | 173° |
| 2026-04-25 16:10 | 47.33005 | 1.02841 | 24847 ft | 375 kts | 172° |
| 2026-04-25 16:10 | 47.30440 | 1.03489 | 24436 ft | 373 kts | 172° |
| 2026-04-25 16:11 | 47.27889 | 1.04133 | 24023 ft | 371 kts | 172° |
| 2026-04-25 16:11 | 47.25348 | 1.04773 | 23571 ft | 370 kts | 172° |
| 2026-04-25 16:11 | 47.22813 | 1.05411 | 23099 ft | 368 kts | 172° |
| 2026-04-25 16:11 | 47.20294 | 1.06045 | 22660 ft | 366 kts | 172° |
| 2026-04-25 16:12 | 47.17793 | 1.06674 | 22236 ft | 363 kts | 172° |
| 2026-04-25 16:12 | 47.15314 | 1.07297 | 21826 ft | 360 kts | 172° |
| 2026-04-25 16:12 | 47.12851 | 1.07916 | 21419 ft | 358 kts | 172° |
| 2026-04-25 16:12 | 47.11231 | 1.08322 | 21153 ft | 356 kts | 172° |
| 2026-04-25 16:13 | 47.07976 | 1.09138 | 20616 ft | 353 kts | 172° |
| 2026-04-25 16:13 | 47.05559 | 1.09743 | 20222 ft | 352 kts | 172° |
| 2026-04-25 16:13 | 47.03153 | 1.10344 | 19822 ft | 350 kts | 172° |
| 2026-04-25 16:13 | 47.00755 | 1.10943 | 19429 ft | 348 kts | 172° |
| 2026-04-25 16:14 | 46.98372 | 1.11538 | 19039 ft | 347 kts | 172° |
| 2026-04-25 16:14 | 46.95995 | 1.12131 | 18643 ft | 346 kts | 172° |
| 2026-04-25 16:14 | 46.93624 | 1.12722 | 18224 ft | 345 kts | 172° |
| 2026-04-25 16:14 | 46.91262 | 1.13309 | 17788 ft | 344 kts | 172° |
| 2026-04-25 16:15 | 46.88910 | 1.13894 | 17373 ft | 342 kts | 172° |
| 2026-04-25 16:15 | 46.86571 | 1.14476 | 16970 ft | 340 kts | 172° |
| 2026-04-25 16:15 | 46.84242 | 1.15054 | 16576 ft | 338 kts | 172° |
| 2026-04-25 16:15 | 46.81929 | 1.15628 | 16190 ft | 336 kts | 172° |
| 2026-04-25 16:16 | 46.79629 | 1.16198 | 15804 ft | 335 kts | 172° |
| 2026-04-25 16:16 | 46.77339 | 1.16765 | 15422 ft | 333 kts | 172° |
| 2026-04-25 16:16 | 46.75057 | 1.17330 | 15039 ft | 332 kts | 172° |
| 2026-04-25 16:16 | 46.72784 | 1.17891 | 14657 ft | 331 kts | 171° |
| 2026-04-25 16:17 | 46.70516 | 1.18451 | 14280 ft | 330 kts | 171° |
| 2026-04-25 16:17 | 46.68258 | 1.19008 | 13892 ft | 329 kts | 171° |
| 2026-04-25 16:17 | 46.66004 | 1.19564 | 13461 ft | 328 kts | 171° |
| 2026-04-25 16:17 | 46.63758 | 1.20117 | 13052 ft | 327 kts | 171° |
| 2026-04-25 16:18 | 46.61521 | 1.20668 | 12660 ft | 325 kts | 171° |
| 2026-04-25 16:18 | 46.60798 | 1.20846 | 12537 ft | 325 kts | 171° |
| 2026-04-25 16:18 | 46.57082 | 1.21760 | 11892 ft | 322 kts | 172° |
| 2026-04-25 16:18 | 46.54879 | 1.22301 | 11520 ft | 320 kts | 171° |
| 2026-04-25 16:19 | 46.52687 | 1.22839 | 11148 ft | 319 kts | 171° |
| 2026-04-25 16:19 | 46.50503 | 1.23375 | 10778 ft | 318 kts | 171° |
| 2026-04-25 16:19 | 46.48332 | 1.23906 | 10426 ft | 316 kts | 171° |
| 2026-04-25 16:20 | 46.44146 | 1.24932 | 10139 ft | 299 kts | 171° |
| 2026-04-25 16:20 | 46.42102 | 1.25432 | 9808 ft | 298 kts | 171° |
| 2026-04-25 16:20 | 46.38027 | 1.26425 | 9134 ft | 296 kts | 171° |
| 2026-04-25 16:21 | 46.36004 | 1.26919 | 8798 ft | 294 kts | 172° |
| 2026-04-25 16:21 | 46.33966 | 1.27416 | 8467 ft | 293 kts | 172° |
| 2026-04-25 16:21 | 46.31991 | 1.27896 | 8153 ft | 291 kts | 172° |
| 2026-04-25 16:21 | 46.29982 | 1.28384 | 7748 ft | 294 kts | 172° |
| 2026-04-25 16:22 | 46.27966 | 1.28874 | 7400 ft | 294 kts | 171° |
| 2026-04-25 16:22 | 46.25982 | 1.29356 | 7176 ft | 282 kts | 171° |
| 2026-04-25 16:22 | 46.24101 | 1.29814 | 7037 ft | 267 kts | 171° |
| 2026-04-25 16:22 | 46.22314 | 1.30249 | 6913 ft | 254 kts | 171° |
| 2026-04-25 16:23 | 46.20619 | 1.30660 | 6795 ft | 241 kts | 172° |
| 2026-04-25 16:23 | 46.18991 | 1.31054 | 6705 ft | 234 kts | 171° |
| 2026-04-25 16:23 | 46.17409 | 1.31437 | 6616 ft | 228 kts | 172° |
| 2026-04-25 16:23 | 46.15864 | 1.31811 | 6514 ft | 224 kts | 171° |
| 2026-04-25 16:24 | 46.14344 | 1.32177 | 6415 ft | 220 kts | 171° |
| 2026-04-25 16:24 | 46.12828 | 1.32544 | 6201 ft | 222 kts | 171° |
| 2026-04-25 16:24 | 46.11301 | 1.32914 | 5986 ft | 223 kts | 171° |
| 2026-04-25 16:24 | 46.09769 | 1.33284 | 5765 ft | 224 kts | 172° |
| 2026-04-25 16:25 | 46.08241 | 1.33651 | 5588 ft | 221 kts | 171° |
| 2026-04-25 16:25 | 46.07223 | 1.33896 | 5407 ft | 218 kts | 171° |
| 2026-04-25 16:25 | 46.05268 | 1.34370 | 5098 ft | 212 kts | 172° |
| 2026-04-25 16:25 | 46.03825 | 1.34559 | 4864 ft | 206 kts | 191° |
| 2026-04-25 16:26 | 46.02618 | 1.33633 | 4678 ft | 195 kts | 224° |
| 2026-04-25 16:26 | 46.01565 | 1.32497 | 4605 ft | 185 kts | 211° |
| 2026-04-25 16:26 | 46.00463 | 1.31576 | 4381 ft | 181 kts | 215° |
| 2026-04-25 16:26 | 45.99418 | 1.30591 | 4140 ft | 178 kts | 216° |
| 2026-04-25 16:27 | 45.98392 | 1.29620 | 3914 ft | 175 kts | 215° |
| 2026-04-25 16:27 | 45.97381 | 1.28667 | 3684 ft | 173 kts | 216° |
| 2026-04-25 16:27 | 45.96376 | 1.27721 | 3458 ft | 173 kts | 216° |
| 2026-04-25 16:27 | 45.95376 | 1.26781 | 3239 ft | 171 kts | 215° |
| 2026-04-25 16:28 | 45.94388 | 1.25851 | 3009 ft | 169 kts | 216° |
| 2026-04-25 16:28 | 45.93413 | 1.24935 | 2788 ft | 166 kts | 216° |
| 2026-04-25 16:28 | 45.92463 | 1.24041 | 2579 ft | 160 kts | 217° |
| 2026-04-25 16:28 | 45.91564 | 1.23195 | 2390 ft | 152 kts | 216° |
| 2026-04-25 16:29 | 45.90699 | 1.22381 | 2192 ft | 145 kts | 217° |
| 2026-04-25 16:29 | 45.89863 | 1.21584 | 1973 ft | 144 kts | 217° |
| 2026-04-25 16:29 | 45.89023 | 1.20813 | 1784 ft | 142 kts | 218° |
| 2026-04-25 16:29 | 45.88199 | 1.20019 | 1603 ft | 144 kts | 217° |
| 2026-04-25 16:30 | 45.87363 | 1.19237 | 1410 ft | 143 kts | 216° |
| 2026-04-25 16:30 | 45.86545 | 1.18468 | 1312 ft | 132 kts | 214° |
| 2026-04-25 16:30 | 45.85951 | 1.17911 | 1313 ft | 71 kts | 213° |
| 2026-04-25 16:30 | 45.85625 | 1.17608 | 1311 ft | 41 kts | 213° |
| 2026-04-25 16:31 | 45.85428 | 1.17422 | 1311 ft | 20 kts | 212° |
| 2026-04-25 16:31 | 45.85399 | 1.17291 | 1313 ft | 14 kts | 301° |
| 2026-04-25 16:31 | 45.85480 | 1.17247 | 1313 ft | 13 kts | 14° |
| 2026-04-25 16:31 | 45.85568 | 1.17288 | 1313 ft | 14 kts | 23° |
| 2026-04-25 16:32 | 45.85662 | 1.17370 | 1314 ft | 17 kts | 34° |
| 2026-04-25 16:32 | 45.85757 | 1.17460 | 1314 ft | 16 kts | 33° |
| 2026-04-25 16:32 | 45.85851 | 1.17548 | 1314 ft | 16 kts | 33° |
| 2026-04-25 16:32 | 45.85939 | 1.17630 | 1314 ft | 15 kts | 33° |
| 2026-04-25 16:33 | 45.86015 | 1.17702 | 1314 ft | 10 kts | 33° |
| 2026-04-25 16:33 | 45.86068 | 1.17752 | 1314 ft | 9 kts | 33° |
| 2026-04-25 16:33 | 45.86117 | 1.17736 | 1314 ft | 7 kts | 305° |
| 2026-04-25 16:33 | 45.86138 | 1.17711 | 1314 ft | 1 kts | 354° |
| 2026-04-25 16:34 | 45.86145 | 1.17719 | 1314 ft | 2 kts | 37° |
| 2026-04-25 16:34 | 45.86149 | 1.17727 | 1314 ft | 0 kts | 63° |
| 2026-04-25 16:34 | 45.86149 | 1.17728 | 1314 ft | 0 kts | 72° |